sensor_id;sensor_type;location;lat;lon;timestamp;pressure;altitude;pressure_sealevel;temperature;humidity
49825;BME280;35714;55.708;37.478;2022-12-07T00:02:01;100547.75;;;-6.53;39.96
49825;BME280;35714;55.708;37.478;2022-12-07T00:04:26;100543.25;;;-6.50;39.62
49825;BME280;35714;55.708;37.478;2022-12-07T00:06:52;100541.75;;;-6.55;39.84
49825;BME280;35714;55.708;37.478;2022-12-07T00:09:18;100547.03;;;-6.55;39.81
49825;BME280;35714;55.708;37.478;2022-12-07T00:11:44;100540.44;;;-6.62;39.81
49825;BME280;35714;55.708;37.478;2022-12-07T00:14:13;100538.56;;;-6.60;39.85
49825;BME280;35714;55.708;37.478;2022-12-07T00:16:39;100547.59;;;-6.64;40.14
49825;BME280;35714;55.708;37.478;2022-12-07T00:19:05;100540.63;;;-6.65;39.67
49825;BME280;35714;55.708;37.478;2022-12-07T00:21:32;100535.56;;;-6.68;40.08
49825;BME280;35714;55.708;37.478;2022-12-07T00:23:58;100536.13;;;-6.77;40.34
49825;BME280;35714;55.708;37.478;2022-12-07T00:26:27;100537.44;;;-6.70;40.20
49825;BME280;35714;55.708;37.478;2022-12-07T00:28:57;100537.53;;;-6.72;40.20
49825;BME280;35714;55.708;37.478;2022-12-07T00:31:24;100531.06;;;-6.80;40.43
49825;BME280;35714;55.708;37.478;2022-12-07T00:33:50;100540.25;;;-6.73;40.53
49825;BME280;35714;55.708;37.478;2022-12-07T00:36:17;100541.41;;;-6.77;40.09
49825;BME280;35714;55.708;37.478;2022-12-07T00:38:43;100543.19;;;-6.78;40.37
49825;BME280;35714;55.708;37.478;2022-12-07T00:41:10;100541.22;;;-6.74;40.39
49825;BME280;35714;55.708;37.478;2022-12-07T00:43:36;100537.06;;;-6.78;40.06
49825;BME280;35714;55.708;37.478;2022-12-07T00:46:02;100545.16;;;-6.81;40.31
49825;BME280;35714;55.708;37.478;2022-12-07T00:48:28;100542.25;;;-6.77;40.27
49825;BME280;35714;55.708;37.478;2022-12-07T00:50:53;100543.28;;;-6.79;40.53
49825;BME280;35714;55.708;37.478;2022-12-07T00:53:19;100544.34;;;-6.82;40.44
49825;BME280;35714;55.708;37.478;2022-12-07T00:55:45;100539.16;;;-6.83;40.35
49825;BME280;35714;55.708;37.478;2022-12-07T00:58:11;100545.81;;;-6.78;40.43
49825;BME280;35714;55.708;37.478;2022-12-07T01:00:37;100524.81;;;-6.79;40.34
49825;BME280;35714;55.708;37.478;2022-12-07T01:03:04;100545.81;;;-6.78;40.45
49825;BME280;35714;55.708;37.478;2022-12-07T01:05:29;100542.47;;;-6.94;40.74
49825;BME280;35714;55.708;37.478;2022-12-07T01:07:55;100544.44;;;-6.98;40.88
49825;BME280;35714;55.708;37.478;2022-12-07T01:10:20;100537.75;;;-6.89;40.77
49825;BME280;35714;55.708;37.478;2022-12-07T01:12:46;100545.56;;;-6.87;40.60
49825;BME280;35714;55.708;37.478;2022-12-07T01:15:11;100530.13;;;-6.94;40.54
49825;BME280;35714;55.708;37.478;2022-12-07T01:17:37;100537.28;;;-6.96;40.85
49825;BME280;35714;55.708;37.478;2022-12-07T01:20:03;100529.84;;;-7.03;41.01
49825;BME280;35714;55.708;37.478;2022-12-07T01:22:29;100529.66;;;-7.00;40.82
49825;BME280;35714;55.708;37.478;2022-12-07T01:24:58;100527.31;;;-7.05;40.80
49825;BME280;35714;55.708;37.478;2022-12-07T01:27:24;100529.56;;;-7.13;41.11
49825;BME280;35714;55.708;37.478;2022-12-07T01:29:50;100530.31;;;-7.11;40.95
49825;BME280;35714;55.708;37.478;2022-12-07T01:32:16;100527.88;;;-7.14;41.09
49825;BME280;35714;55.708;37.478;2022-12-07T01:34:41;100527.88;;;-7.14;41.09
49825;BME280;35714;55.708;37.478;2022-12-07T01:37:07;100527.88;;;-7.14;41.27
49825;BME280;35714;55.708;37.478;2022-12-07T01:39:32;100534.34;;;-7.20;41.27
49825;BME280;35714;55.708;37.478;2022-12-07T01:41:58;100527.50;;;-7.22;41.45
49825;BME280;35714;55.708;37.478;2022-12-07T01:44:29;100523.16;;;-7.23;41.41
49825;BME280;35714;55.708;37.478;2022-12-07T01:46:57;100522.03;;;-7.19;41.50
49825;BME280;35714;55.708;37.478;2022-12-07T01:51:49;100516.03;;;-7.21;41.33
49825;BME280;35714;55.708;37.478;2022-12-07T01:54:16;100526.34;;;-7.18;41.34
49825;BME280;35714;55.708;37.478;2022-12-07T01:56:44;100509.03;;;-7.22;41.36
49825;BME280;35714;55.708;37.478;2022-12-07T01:59:12;100506.31;;;-7.21;41.33
49825;BME280;35714;55.708;37.478;2022-12-07T02:01:38;100511.50;;;-7.19;41.21
49825;BME280;35714;55.708;37.478;2022-12-07T02:04:04;100495.50;;;-7.16;40.67
49825;BME280;35714;55.708;37.478;2022-12-07T02:06:31;100496.63;;;-7.20;41.04
49825;BME280;35714;55.708;37.478;2022-12-07T02:08:56;100508.84;;;-7.19;41.06
49825;BME280;35714;55.708;37.478;2022-12-07T02:11:22;100505.66;;;-7.24;40.75
49825;BME280;35714;55.708;37.478;2022-12-07T02:13:47;100502.06;;;-7.23;40.74
49825;BME280;35714;55.708;37.478;2022-12-07T02:31:16;100502.44;;;-7.30;41.29
49825;BME280;35714;55.708;37.478;2022-12-07T02:33:45;100495.22;;;-7.26;41.34
49825;BME280;35714;55.708;37.478;2022-12-07T02:36:13;100496.06;;;-7.26;41.09
49825;BME280;35714;55.708;37.478;2022-12-07T02:38:47;100493.22;;;-7.22;41.03
49825;BME280;35714;55.708;37.478;2022-12-07T02:41:19;100490.78;;;-7.11;41.10
49825;BME280;35714;55.708;37.478;2022-12-07T02:44:21;100499.81;;;-7.15;41.07
49825;BME280;35714;55.708;37.478;2022-12-07T02:46:43;100492.84;;;-7.16;41.13
49825;BME280;35714;55.708;37.478;2022-12-07T02:49:09;100489.84;;;-7.10;40.67
49825;BME280;35714;55.708;37.478;2022-12-07T02:51:38;100514.78;;;-7.16;40.97
49825;BME280;35714;55.708;37.478;2022-12-07T02:54:08;100498.13;;;-7.16;41.06
49825;BME280;35714;55.708;37.478;2022-12-07T02:56:47;100494.72;;;-7.18;41.15
49825;BME280;35714;55.708;37.478;2022-12-07T03:02:06;100483.72;;;-7.25;41.34
49825;BME280;35714;55.708;37.478;2022-12-07T03:04:49;100480.41;;;-7.14;41.18
49825;BME280;35714;55.708;37.478;2022-12-07T03:07:24;100490.97;;;-7.14;41.36
49825;BME280;35714;55.708;37.478;2022-12-07T03:15:13;100485.88;;;-7.17;41.41
49825;BME280;35714;55.708;37.478;2022-12-07T03:17:40;100493.97;;;-7.20;41.58
49825;BME280;35714;55.708;37.478;2022-12-07T03:20:08;100492.19;;;-7.20;41.90
49825;BME280;35714;55.708;37.478;2022-12-07T03:22:35;100484.00;;;-7.15;41.54
49825;BME280;35714;55.708;37.478;2022-12-07T03:25:06;100491.53;;;-7.23;41.75
49825;BME280;35714;55.708;37.478;2022-12-07T03:27:39;100475.53;;;-7.20;41.69
49825;BME280;35714;55.708;37.478;2022-12-07T03:30:07;100482.13;;;-7.13;41.54
49825;BME280;35714;55.708;37.478;2022-12-07T03:32:35;100484.41;;;-7.21;41.90
49825;BME280;35714;55.708;37.478;2022-12-07T03:42:29;100492.28;;;-7.36;42.46
49825;BME280;35714;55.708;37.478;2022-12-07T03:44:55;100484.38;;;-7.36;42.90
49825;BME280;35714;55.708;37.478;2022-12-07T03:47:31;100469.16;;;-7.31;42.63
49825;BME280;35714;55.708;37.478;2022-12-07T03:50:10;100483.81;;;-7.41;42.93
49825;BME280;35714;55.708;37.478;2022-12-07T03:52:43;100471.38;;;-7.39;42.70
49825;BME280;35714;55.708;37.478;2022-12-07T03:55:15;100469.72;;;-7.40;42.78
49825;BME280;35714;55.708;37.478;2022-12-07T03:57:43;100466.13;;;-7.39;43.09
49825;BME280;35714;55.708;37.478;2022-12-07T04:00:10;100462.75;;;-7.41;43.04
49825;BME280;35714;55.708;37.478;2022-12-07T04:02:39;100469.53;;;-7.37;42.92
49825;BME280;35714;55.708;37.478;2022-12-07T04:05:05;100456.44;;;-7.24;42.62
49825;BME280;35714;55.708;37.478;2022-12-07T04:07:31;100449.56;;;-7.27;42.73
49825;BME280;35714;55.708;37.478;2022-12-07T04:09:57;100457.47;;;-7.27;42.95
49825;BME280;35714;55.708;37.478;2022-12-07T04:12:23;100461.63;;;-7.22;42.63
49825;BME280;35714;55.708;37.478;2022-12-07T04:14:48;100451.44;;;-7.29;42.74
49825;BME280;35714;55.708;37.478;2022-12-07T04:17:14;100465.00;;;-7.20;43.19
49825;BME280;35714;55.708;37.478;2022-12-07T04:19:39;100464.34;;;-7.24;43.23
49825;BME280;35714;55.708;37.478;2022-12-07T04:22:05;100466.78;;;-7.21;43.00
49825;BME280;35714;55.708;37.478;2022-12-07T04:24:31;100482.88;;;-7.26;43.52
49825;BME280;35714;55.708;37.478;2022-12-07T04:26:57;100464.34;;;-7.24;43.60
49825;BME280;35714;55.708;37.478;2022-12-07T04:29:22;100463.50;;;-7.24;43.76
49825;BME280;35714;55.708;37.478;2022-12-07T04:31:48;100459.25;;;-7.13;44.02
49825;BME280;35714;55.708;37.478;2022-12-07T04:34:14;100456.69;;;-7.00;43.74
49825;BME280;35714;55.708;37.478;2022-12-07T04:36:40;100460.84;;;-7.10;44.12
49825;BME280;35714;55.708;37.478;2022-12-07T04:39:05;100452.78;;;-7.21;44.65
49825;BME280;35714;55.708;37.478;2022-12-07T04:41:32;100447.97;;;-7.29;44.43
49825;BME280;35714;55.708;37.478;2022-12-07T04:43:58;100447.50;;;-7.21;44.64
49825;BME280;35714;55.708;37.478;2022-12-07T04:46:24;100450.00;;;-7.20;44.97
49825;BME280;35714;55.708;37.478;2022-12-07T04:48:50;100447.88;;;-7.28;45.03
49825;BME280;35714;55.708;37.478;2022-12-07T04:51:18;100441.19;;;-7.19;45.28
49825;BME280;35714;55.708;37.478;2022-12-07T04:53:44;100457.47;;;-7.27;45.28
49825;BME280;35714;55.708;37.478;2022-12-07T04:56:09;100446.56;;;-7.35;45.41
49825;BME280;35714;55.708;37.478;2022-12-07T04:58:35;100464.25;;;-7.37;45.65
49825;BME280;35714;55.708;37.478;2022-12-07T05:01:01;100444.84;;;-7.36;45.55
49825;BME280;35714;55.708;37.478;2022-12-07T05:03:26;100459.91;;;-7.38;45.71
49825;BME280;35714;55.708;37.478;2022-12-07T05:05:52;100454.19;;;-7.45;45.97
49825;BME280;35714;55.708;37.478;2022-12-07T05:08:17;100459.38;;;-7.43;46.04
49825;BME280;35714;55.708;37.478;2022-12-07T05:10:43;100462.09;;;-7.45;46.29
49825;BME280;35714;55.708;37.478;2022-12-07T05:13:08;100458.03;;;-7.50;46.32
49825;BME280;35714;55.708;37.478;2022-12-07T05:15:34;100470.19;;;-7.48;46.22
49825;BME280;35714;55.708;37.478;2022-12-07T05:17:59;100459.38;;;-7.43;46.65
49825;BME280;35714;55.708;37.478;2022-12-07T05:20:25;100467.25;;;-7.43;46.53
49825;BME280;35714;55.708;37.478;2022-12-07T05:22:50;100455.75;;;-7.56;46.73
49825;BME280;35714;55.708;37.478;2022-12-07T05:25:16;100459.38;;;-7.43;47.08
49825;BME280;35714;55.708;37.478;2022-12-07T05:27:41;100462.19;;;-7.46;47.08
49825;BME280;35714;55.708;37.478;2022-12-07T05:30:07;100455.94;;;-7.45;47.21
49825;BME280;35714;55.708;37.478;2022-12-07T05:32:33;100464.03;;;-7.48;47.34
49825;BME280;35714;55.708;37.478;2022-12-07T05:34:58;100459.72;;;-7.49;47.42
49825;BME280;35714;55.708;37.478;2022-12-07T05:37:24;100454.28;;;-7.60;47.64
49825;BME280;35714;55.708;37.478;2022-12-07T05:39:49;100455.38;;;-7.65;47.82
49825;BME280;35714;55.708;37.478;2022-12-07T05:42:15;100447.50;;;-7.65;48.24
49825;BME280;35714;55.708;37.478;2022-12-07T05:44:45;100471.28;;;-7.66;48.29
49825;BME280;35714;55.708;37.478;2022-12-07T05:47:11;100456.59;;;-7.70;48.35
49825;BME280;35714;55.708;37.478;2022-12-07T05:49:37;100448.59;;;-7.69;48.46
49825;BME280;35714;55.708;37.478;2022-12-07T05:52:03;100457.28;;;-7.67;48.81
49825;BME280;35714;55.708;37.478;2022-12-07T05:54:28;100455.09;;;-7.74;48.86
49825;BME280;35714;55.708;37.478;2022-12-07T05:56:54;100450.75;;;-7.75;49.02
49825;BME280;35714;55.708;37.478;2022-12-07T05:59:19;100455.75;;;-7.71;49.22
49825;BME280;35714;55.708;37.478;2022-12-07T06:01:51;100448.13;;;-7.61;49.27
49825;BME280;35714;55.708;37.478;2022-12-07T06:04:17;100446.75;;;-7.67;49.17
49825;BME280;35714;55.708;37.478;2022-12-07T06:06:44;100447.88;;;-7.56;49.46
49825;BME280;35714;55.708;37.478;2022-12-07T06:09:09;100447.69;;;-7.53;49.56
49825;BME280;35714;55.708;37.478;2022-12-07T06:11:35;100452.47;;;-7.60;49.52
49825;BME280;35714;55.708;37.478;2022-12-07T06:14:19;100450.13;;;-7.65;49.63
49825;BME280;35714;55.708;37.478;2022-12-07T06:16:45;100448.59;;;-7.69;49.87
49825;BME280;35714;55.708;37.478;2022-12-07T06:19:10;100456.22;;;-7.64;49.93
49825;BME280;35714;55.708;37.478;2022-12-07T06:21:36;100454.28;;;-7.60;50.22
49825;BME280;35714;55.708;37.478;2022-12-07T06:24:01;100443.75;;;-7.60;50.24
49825;BME280;35714;55.708;37.478;2022-12-07T06:26:27;100454.09;;;-7.43;50.40
49825;BME280;35714;55.708;37.478;2022-12-07T06:28:53;100454.63;;;-7.09;50.05
49825;BME280;35714;55.708;37.478;2022-12-07T06:31:18;100442.22;;;-6.80;49.38
49825;BME280;35714;55.708;37.478;2022-12-07T06:33:44;100460.09;;;-6.43;48.41
49825;BME280;35714;55.708;37.478;2022-12-07T06:36:09;100454.53;;;-6.11;47.89
49825;BME280;35714;55.708;37.478;2022-12-07T06:38:35;100448.81;;;-5.80;47.40
49825;BME280;35714;55.708;37.478;2022-12-07T06:41:01;100450.72;;;-5.43;46.62
49825;BME280;35714;55.708;37.478;2022-12-07T06:43:26;100448.16;;;-5.19;46.05
49825;BME280;35714;55.708;37.478;2022-12-07T06:45:52;100460.78;;;-4.98;45.67
49825;BME280;35714;55.708;37.478;2022-12-07T06:48:18;100444.25;;;-4.76;45.01
49825;BME280;35714;55.708;37.478;2022-12-07T06:50:46;100448.84;;;-4.54;44.29
49825;BME280;35714;55.708;37.478;2022-12-07T06:53:12;100450.66;;;-4.43;43.87
49825;BME280;35714;55.708;37.478;2022-12-07T06:55:38;100441.69;;;-4.29;43.42
49825;BME280;35714;55.708;37.478;2022-12-07T06:58:03;100442.25;;;-4.13;42.97
49825;BME280;35714;55.708;37.478;2022-12-07T07:00:29;100443.78;;;-3.86;42.61
49825;BME280;35714;55.708;37.478;2022-12-07T07:02:55;100443.94;;;-3.54;41.61
49825;BME280;35714;55.708;37.478;2022-12-07T07:05:20;100447.94;;;-3.48;41.74
49825;BME280;35714;55.708;37.478;2022-12-07T07:07:49;100448.44;;;-3.20;41.30
49825;BME280;35714;55.708;37.478;2022-12-07T07:10:15;100423.84;;;-3.11;40.55
49825;BME280;35714;55.708;37.478;2022-12-07T07:12:40;100454.00;;;-3.12;40.94
49825;BME280;35714;55.708;37.478;2022-12-07T07:15:06;100458.31;;;-3.00;40.27
49825;BME280;35714;55.708;37.478;2022-12-07T07:17:31;100437.91;;;-2.88;39.86
49825;BME280;35714;55.708;37.478;2022-12-07T07:19:57;100443.31;;;-2.67;38.90
49825;BME280;35714;55.708;37.478;2022-12-07T07:22:22;100432.88;;;-2.47;38.56
49825;BME280;35714;55.708;37.478;2022-12-07T07:24:48;100446.41;;;-2.50;38.62
49825;BME280;35714;55.708;37.478;2022-12-07T07:27:13;100437.94;;;-2.44;38.62
49825;BME280;35714;55.708;37.478;2022-12-07T07:29:39;100438.56;;;-2.20;37.57
49825;BME280;35714;55.708;37.478;2022-12-07T07:32:05;100433.06;;;-2.28;38.03
49825;BME280;35714;55.708;37.478;2022-12-07T07:34:30;100428.16;;;-2.11;38.09
49825;BME280;35714;55.708;37.478;2022-12-07T07:36:56;100435.34;;;-2.02;37.28
49825;BME280;35714;55.708;37.478;2022-12-07T07:39:21;100446.31;;;-1.74;36.71
49825;BME280;35714;55.708;37.478;2022-12-07T07:41:47;100427.13;;;-1.57;36.34
49825;BME280;35714;55.708;37.478;2022-12-07T07:44:22;100422.75;;;-1.58;36.76
49825;BME280;35714;55.708;37.478;2022-12-07T07:46:48;100434.28;;;-1.17;35.80
49825;BME280;35714;55.708;37.478;2022-12-07T07:49:13;100417.84;;;-0.91;34.90
49825;BME280;35714;55.708;37.478;2022-12-07T07:51:39;100417.31;;;-0.85;34.92
49825;BME280;35714;55.708;37.478;2022-12-07T07:54:04;100418.00;;;-0.83;34.84
49825;BME280;35714;55.708;37.478;2022-12-07T07:56:30;100416.38;;;-0.64;34.65
49825;BME280;35714;55.708;37.478;2022-12-07T07:58:56;100409.50;;;-0.47;34.70
49825;BME280;35714;55.708;37.478;2022-12-07T08:01:21;100418.06;;;-0.14;33.85
49825;BME280;35714;55.708;37.478;2022-12-07T08:03:47;100425.47;;;0.21;32.52
49825;BME280;35714;55.708;37.478;2022-12-07T08:06:12;100420.03;;;-0.07;32.91
49825;BME280;35714;55.708;37.478;2022-12-07T08:08:38;100411.03;;;0.04;32.55
49825;BME280;35714;55.708;37.478;2022-12-07T08:11:07;100422.56;;;-0.15;32.47
49825;BME280;35714;55.708;37.478;2022-12-07T08:13:33;100406.69;;;-0.07;32.90
49825;BME280;35714;55.708;37.478;2022-12-07T08:15:59;100406.97;;;0.10;32.67
49825;BME280;35714;55.708;37.478;2022-12-07T08:18:28;100410.88;;;0.25;32.50
49825;BME280;35714;55.708;37.478;2022-12-07T08:20:58;100417.56;;;0.49;32.17
49825;BME280;35714;55.708;37.478;2022-12-07T08:23:24;100406.06;;;0.39;32.42
49825;BME280;35714;55.708;37.478;2022-12-07T08:25:49;100399.47;;;0.70;31.73
49825;BME280;35714;55.708;37.478;2022-12-07T08:28:15;100408.94;;;0.93;30.99
49825;BME280;35714;55.708;37.478;2022-12-07T08:30:40;100412.66;;;1.10;30.92
49825;BME280;35714;55.708;37.478;2022-12-07T08:33:06;100410.19;;;0.98;30.96
49825;BME280;35714;55.708;37.478;2022-12-07T08:35:32;100406.41;;;1.01;30.88
49825;BME280;35714;55.708;37.478;2022-12-07T08:37:58;100412.47;;;0.93;30.11
49825;BME280;35714;55.708;37.478;2022-12-07T08:40:23;100401.38;;;0.88;30.83
49825;BME280;35714;55.708;37.478;2022-12-07T08:42:49;100403.06;;;0.89;30.50
49825;BME280;35714;55.708;37.478;2022-12-07T08:45:15;100397.97;;;0.96;30.18
49825;BME280;35714;55.708;37.478;2022-12-07T08:47:43;100406.72;;;0.88;30.45
49825;BME280;35714;55.708;37.478;2022-12-07T08:50:10;100396.09;;;1.06;30.63
49825;BME280;35714;55.708;37.478;2022-12-07T08:52:36;100388.38;;;1.49;30.25
49825;BME280;35714;55.708;37.478;2022-12-07T08:55:03;100389.34;;;1.84;29.18
49825;BME280;35714;55.708;37.478;2022-12-07T08:57:29;100383.84;;;2.03;29.17
49825;BME280;35714;55.708;37.478;2022-12-07T08:59:55;100383.16;;;2.53;28.18
49825;BME280;35714;55.708;37.478;2022-12-07T09:02:20;100387.13;;;2.49;28.30
49825;BME280;35714;55.708;37.478;2022-12-07T09:04:46;100402.97;;;2.69;27.26
49825;BME280;35714;55.708;37.478;2022-12-07T09:07:12;100385.13;;;2.51;27.70
49825;BME280;35714;55.708;37.478;2022-12-07T09:09:37;100391.94;;;2.72;27.35
49825;BME280;35714;55.708;37.478;2022-12-07T09:12:03;100373.25;;;2.80;27.32
49825;BME280;35714;55.708;37.478;2022-12-07T09:14:29;100384.00;;;2.97;26.84
49825;BME280;35714;55.708;37.478;2022-12-07T09:16:54;100370.59;;;2.88;27.45
49825;BME280;35714;55.708;37.478;2022-12-07T09:19:20;100378.50;;;3.06;27.33
49825;BME280;35714;55.708;37.478;2022-12-07T09:21:45;100375.47;;;3.52;25.91
49825;BME280;35714;55.708;37.478;2022-12-07T09:24:11;100361.34;;;3.25;26.36
49825;BME280;35714;55.708;37.478;2022-12-07T09:26:37;100370.38;;;3.41;26.57
49825;BME280;35714;55.708;37.478;2022-12-07T09:29:04;100363.03;;;3.43;26.84
49825;BME280;35714;55.708;37.478;2022-12-07T09:31:29;100363.38;;;3.56;25.97
49825;BME280;35714;55.708;37.478;2022-12-07T09:33:56;100362.72;;;3.46;26.52
49825;BME280;35714;55.708;37.478;2022-12-07T09:36:22;100350.66;;;3.75;25.82
49825;BME280;35714;55.708;37.478;2022-12-07T09:38:47;100350.97;;;3.88;25.42
49825;BME280;35714;55.708;37.478;2022-12-07T09:41:13;100343.63;;;3.90;25.54
49825;BME280;35714;55.708;37.478;2022-12-07T09:43:39;100341.25;;;3.95;25.32
49825;BME280;35714;55.708;37.478;2022-12-07T09:46:05;100336.56;;;3.89;25.36
49825;BME280;35714;55.708;37.478;2022-12-07T09:48:37;100350.91;;;4.38;24.24
49825;BME280;35714;55.708;37.478;2022-12-07T09:51:17;100345.75;;;4.28;23.90
49825;BME280;35714;55.708;37.478;2022-12-07T09:53:43;100343.44;;;4.00;24.20
49825;BME280;35714;55.708;37.478;2022-12-07T09:56:11;100324.84;;;3.82;24.82
49825;BME280;35714;55.708;37.478;2022-12-07T09:58:38;100331.00;;;3.99;24.39
49825;BME280;35714;55.708;37.478;2022-12-07T10:01:11;100328.84;;;3.94;24.22
49825;BME280;35714;55.708;37.478;2022-12-07T10:03:38;100315.63;;;3.76;25.07
49825;BME280;35714;55.708;37.478;2022-12-07T10:06:04;100325.50;;;3.92;24.73
49825;BME280;35714;55.708;37.478;2022-12-07T10:08:31;100323.47;;;4.03;24.48
49825;BME280;35714;55.708;37.478;2022-12-07T10:10:56;100328.84;;;3.94;24.82
49825;BME280;35714;55.708;37.478;2022-12-07T10:13:33;100315.88;;;4.23;23.99
49825;BME280;35714;55.708;37.478;2022-12-07T10:15:59;100329.81;;;4.18;23.43
49825;BME280;35714;55.708;37.478;2022-12-07T10:18:38;100308.41;;;3.77;24.23
49825;BME280;35714;55.708;37.478;2022-12-07T10:21:17;100315.97;;;3.57;25.33
49825;BME280;35714;55.708;37.478;2022-12-07T10:26:28;100322.97;;;4.07;24.39
49825;BME280;35714;55.708;37.478;2022-12-07T10:28:54;100319.59;;;4.22;23.80
49825;BME280;35714;55.708;37.478;2022-12-07T10:31:21;100319.94;;;4.10;23.77
49825;BME280;35714;55.708;37.478;2022-12-07T10:36:17;100312.75;;;3.53;24.12
49825;BME280;35714;55.708;37.478;2022-12-07T10:38:45;100307.72;;;3.34;24.63
49825;BME280;35714;55.708;37.478;2022-12-07T10:41:10;100309.84;;;2.97;24.59
49825;BME280;35714;55.708;37.478;2022-12-07T10:43:36;100321.00;;;2.84;25.13
49825;BME280;35714;55.708;37.478;2022-12-07T10:46:07;100303.94;;;2.77;25.12
49825;BME280;35714;55.708;37.478;2022-12-07T10:51:26;100306.53;;;2.61;25.58
49825;BME280;35714;55.708;37.478;2022-12-07T10:56:34;100296.53;;;2.63;26.08
49825;BME280;35714;55.708;37.478;2022-12-07T10:59:24;100289.41;;;2.88;25.55
49825;BME280;35714;55.708;37.478;2022-12-07T11:01:57;100293.56;;;2.91;25.47
49825;BME280;35714;55.708;37.478;2022-12-07T11:22:18;100274.78;;;1.97;26.55
49825;BME280;35714;55.708;37.478;2022-12-07T11:29:44;100283.41;;;1.83;27.27
49825;BME280;35714;55.708;37.478;2022-12-07T11:37:25;100263.50;;;1.59;27.23
49825;BME280;35714;55.708;37.478;2022-12-07T11:39:59;100263.50;;;1.59;27.52
49825;BME280;35714;55.708;37.478;2022-12-07T11:42:26;100269.09;;;1.48;27.29
49825;BME280;35714;55.708;37.478;2022-12-07T11:47:40;100248.53;;;0.58;28.71
49825;BME280;35714;55.708;37.478;2022-12-07T11:52:48;100247.47;;;-0.71;30.79
49825;BME280;35714;55.708;37.478;2022-12-07T11:55:26;100236.22;;;-1.34;31.85
49825;BME280;35714;55.708;37.478;2022-12-07T11:58:14;100243.78;;;-1.29;32.46
49825;BME280;35714;55.708;37.478;2022-12-07T12:00:42;100238.22;;;-1.06;32.17
49825;BME280;35714;55.708;37.478;2022-12-07T12:03:09;100237.38;;;-0.97;32.11
49825;BME280;35714;55.708;37.478;2022-12-07T12:05:36;100232.59;;;-0.84;31.89
49825;BME280;35714;55.708;37.478;2022-12-07T12:08:14;100234.84;;;-0.89;32.05
49825;BME280;35714;55.708;37.478;2022-12-07T12:13:44;100229.66;;;-1.90;33.60
49825;BME280;35714;55.708;37.478;2022-12-07T12:19:01;100227.44;;;-2.88;35.75
49825;BME280;35714;55.708;37.478;2022-12-07T12:21:31;100230.50;;;-3.37;36.68
49825;BME280;35714;55.708;37.478;2022-12-07T12:26:23;100214.63;;;-4.03;38.03
49825;BME280;35714;55.708;37.478;2022-12-07T12:28:51;100218.47;;;-4.07;38.80
49825;BME280;35714;55.708;37.478;2022-12-07T12:33:44;100221.19;;;-4.65;39.33
49825;BME280;35714;55.708;37.478;2022-12-07T12:36:28;100221.63;;;-4.83;40.10
49825;BME280;35714;55.708;37.478;2022-12-07T12:47:01;100218.44;;;-5.11;41.50
49825;BME280;35714;55.708;37.478;2022-12-07T12:52:00;100239.69;;;-5.36;42.65
49825;BME280;35714;55.708;37.478;2022-12-07T12:54:35;100221.84;;;-5.46;43.05
49825;BME280;35714;55.708;37.478;2022-12-07T13:01:56;100223.50;;;-5.56;43.83
49825;BME280;35714;55.708;37.478;2022-12-07T13:04:40;100224.16;;;-5.65;44.11
49825;BME280;35714;55.708;37.478;2022-12-07T13:07:13;100227.69;;;-5.77;44.30
49825;BME280;35714;55.708;37.478;2022-12-07T13:09:58;100222.94;;;-5.85;44.46
49825;BME280;35714;55.708;37.478;2022-12-07T13:12:24;100221.53;;;-6.02;45.23
49825;BME280;35714;55.708;37.478;2022-12-07T13:14:54;100227.09;;;-5.94;45.19
49825;BME280;35714;55.708;37.478;2022-12-07T13:19:59;100215.28;;;-6.38;45.99
49825;BME280;35714;55.708;37.478;2022-12-07T13:22:36;100216.66;;;-6.45;46.51
49825;BME280;35714;55.708;37.478;2022-12-07T13:25:38;100209.47;;;-6.56;46.65
49825;BME280;35714;55.708;37.478;2022-12-07T13:30:53;100219.59;;;-6.50;47.14
49825;BME280;35714;55.708;37.478;2022-12-07T13:33:24;100221.81;;;-6.57;47.39
49825;BME280;35714;55.708;37.478;2022-12-07T13:35:56;100213.91;;;-6.57;46.98
49825;BME280;35714;55.708;37.478;2022-12-07T13:38:23;100223.50;;;-6.68;47.57
49825;BME280;35714;55.708;37.478;2022-12-07T13:41:01;100200.38;;;-6.39;47.18
49825;BME280;35714;55.708;37.478;2022-12-07T13:43:27;100195.03;;;-6.50;47.37
49825;BME280;35714;55.708;37.478;2022-12-07T13:45:57;100223.59;;;-6.57;47.46
49825;BME280;35714;55.708;37.478;2022-12-07T13:48:36;100201.34;;;-6.53;47.29
49825;BME280;35714;55.708;37.478;2022-12-07T13:51:14;100203.34;;;-6.57;47.53
49825;BME280;35714;55.708;37.478;2022-12-07T13:53:46;100188.88;;;-6.77;48.01
49825;BME280;35714;55.708;37.478;2022-12-07T13:56:12;100199.84;;;-6.96;48.20
49825;BME280;35714;55.708;37.478;2022-12-07T13:58:38;100198.34;;;-7.00;48.63
49825;BME280;35714;55.708;37.478;2022-12-07T14:01:04;100196.31;;;-7.09;48.73
49825;BME280;35714;55.708;37.478;2022-12-07T14:03:32;100201.06;;;-7.14;48.79
49825;BME280;35714;55.708;37.478;2022-12-07T14:06:06;100200.44;;;-7.18;49.17
49825;BME280;35714;55.708;37.478;2022-12-07T14:08:32;100213.19;;;-7.24;49.61
49825;BME280;35714;55.708;37.478;2022-12-07T14:10:58;100190.94;;;-7.20;48.75
49825;BME280;35714;55.708;37.478;2022-12-07T14:13:34;100192.44;;;-7.16;49.04
49825;BME280;35714;55.708;37.478;2022-12-07T14:16:03;100176.41;;;-7.13;48.77
49825;BME280;35714;55.708;37.478;2022-12-07T14:18:36;100186.56;;;-7.07;48.85
49825;BME280;35714;55.708;37.478;2022-12-07T14:21:06;100185.66;;;-7.20;49.00
49825;BME280;35714;55.708;37.478;2022-12-07T14:23:39;100187.38;;;-7.19;49.04
49825;BME280;35714;55.708;37.478;2022-12-07T14:26:11;100177.63;;;-7.32;48.95
49825;BME280;35714;55.708;37.478;2022-12-07T14:28:38;100187.56;;;-7.22;48.84
49825;BME280;35714;55.708;37.478;2022-12-07T14:31:07;100174.09;;;-7.45;49.54
49825;BME280;35714;55.708;37.478;2022-12-07T14:33:35;100186.88;;;-7.39;49.70
49825;BME280;35714;55.708;37.478;2022-12-07T14:36:01;100190.69;;;-7.43;49.65